sensor_id;sensor_type;location;lat;lon;timestamp;temperature;humidity
28839;DHT22;15971;50.772;6.100;2022-08-11T00:00:13;20.50;90.10
28839;DHT22;15971;50.772;6.100;2022-08-11T00:02:40;20.30;90.20
28839;DHT22;15971;50.772;6.100;2022-08-11T00:05:18;20.30;90.30
28839;DHT22;15971;50.772;6.100;2022-08-11T00:07:50;20.20;90.40
28839;DHT22;15971;50.772;6.100;2022-08-11T00:10:25;20.30;90.50
28839;DHT22;15971;50.772;6.100;2022-08-11T00:15:27;20.20;90.40
28839;DHT22;15971;50.772;6.100;2022-08-11T00:17:58;20.20;90.50
28839;DHT22;15971;50.772;6.100;2022-08-11T00:20:29;20.20;90.90
28839;DHT22;15971;50.772;6.100;2022-08-11T00:23:05;20.10;90.60
28839;DHT22;15971;50.772;6.100;2022-08-11T00:25:40;20.10;90.60
28839;DHT22;15971;50.772;6.100;2022-08-11T00:28:29;20.10;90.70
28839;DHT22;15971;50.772;6.100;2022-08-11T00:30:58;20.10;90.70
28839;DHT22;15971;50.772;6.100;2022-08-11T00:33:38;20.20;90.70
28839;DHT22;15971;50.772;6.100;2022-08-11T00:36:08;20.10;90.90
28839;DHT22;15971;50.772;6.100;2022-08-11T00:38:37;20.10;90.90
28839;DHT22;15971;50.772;6.100;2022-08-11T00:49:22;19.90;91.00
28839;DHT22;15971;50.772;6.100;2022-08-11T00:54:57;19.80;91.30
28839;DHT22;15971;50.772;6.100;2022-08-11T00:57:58;19.80;91.30
28839;DHT22;15971;50.772;6.100;2022-08-11T01:00:25;19.80;91.40
28839;DHT22;15971;50.772;6.100;2022-08-11T01:03:08;19.70;91.40
28839;DHT22;15971;50.772;6.100;2022-08-11T01:20:25;19.50;91.90
28839;DHT22;15971;50.772;6.100;2022-08-11T01:25:56;19.40;92.00
28839;DHT22;15971;50.772;6.100;2022-08-11T01:29:08;19.30;92.30
28839;DHT22;15971;50.772;6.100;2022-08-11T01:37:36;19.20;92.50
28839;DHT22;15971;50.772;6.100;2022-08-11T01:46:06;19.10;92.70
28839;DHT22;15971;50.772;6.100;2022-08-11T01:54:36;19.10;92.40
28839;DHT22;15971;50.772;6.100;2022-08-11T01:59:56;19.00;92.20
28839;DHT22;15971;50.772;6.100;2022-08-11T02:03:17;19.00;92.50
28839;DHT22;15971;50.772;6.100;2022-08-11T02:08:37;19.00;92.30
28839;DHT22;15971;50.772;6.100;2022-08-11T02:11:26;18.90;92.30
28839;DHT22;15971;50.772;6.100;2022-08-11T02:25:52;18.70;92.60
28839;DHT22;15971;50.772;6.100;2022-08-11T02:37:17;18.60;92.70
28839;DHT22;15971;50.772;6.100;2022-08-11T02:45:15;18.50;92.80
28839;DHT22;15971;50.772;6.100;2022-08-11T02:47:57;18.50;92.70
28839;DHT22;15971;50.772;6.100;2022-08-11T02:53:38;18.50;92.70
28839;DHT22;15971;50.772;6.100;2022-08-11T02:59:04;18.50;92.70
28839;DHT22;15971;50.772;6.100;2022-08-11T03:10:25;18.40;92.90
28839;DHT22;15971;50.772;6.100;2022-08-11T03:13:18;18.40;92.60
28839;DHT22;15971;50.772;6.100;2022-08-11T03:19:15;18.40;92.90
28839;DHT22;15971;50.772;6.100;2022-08-11T03:25:24;18.30;92.90
28839;DHT22;15971;50.772;6.100;2022-08-11T03:30:26;18.30;93.00
28839;DHT22;15971;50.772;6.100;2022-08-11T03:33:26;18.30;92.90
28839;DHT22;15971;50.772;6.100;2022-08-11T03:39:07;18.20;92.90
28839;DHT22;15971;50.772;6.100;2022-08-11T03:44:23;18.10;93.00
28839;DHT22;15971;50.772;6.100;2022-08-11T04:36:20;17.80;93.30
28839;DHT22;15971;50.772;6.100;2022-08-11T04:38:57;17.80;93.50
28839;DHT22;15971;50.772;6.100;2022-08-11T04:45:32;17.90;93.00
28839;DHT22;15971;50.772;6.100;2022-08-11T04:54:22;18.00;93.10
28839;DHT22;15971;50.772;6.100;2022-08-11T04:57:18;18.00;92.90
28839;DHT22;15971;50.772;6.100;2022-08-11T05:00:09;18.10;92.80
28839;DHT22;15971;50.772;6.100;2022-08-11T05:14:25;18.20;92.40
28839;DHT22;15971;50.772;6.100;2022-08-11T05:17:14;18.30;92.30
28839;DHT22;15971;50.772;6.100;2022-08-11T05:19:59;18.40;92.30
28839;DHT22;15971;50.772;6.100;2022-08-11T05:22:48;18.50;92.10
28839;DHT22;15971;50.772;6.100;2022-08-11T05:25:34;18.50;91.80
28839;DHT22;15971;50.772;6.100;2022-08-11T05:28:37;18.60;91.80
28839;DHT22;15971;50.772;6.100;2022-08-11T05:31:31;18.80;91.80
28839;DHT22;15971;50.772;6.100;2022-08-11T05:34:22;18.80;91.90
28839;DHT22;15971;50.772;6.100;2022-08-11T05:40:13;18.90;91.70
28839;DHT22;15971;50.772;6.100;2022-08-11T05:43:05;19.00;91.80
28839;DHT22;15971;50.772;6.100;2022-08-11T05:46:03;19.10;91.50
28839;DHT22;15971;50.772;6.100;2022-08-11T05:48:48;19.30;91.40
28839;DHT22;15971;50.772;6.100;2022-08-11T05:51:40;19.40;91.20
28839;DHT22;15971;50.772;6.100;2022-08-11T05:54:26;19.60;91.00
28839;DHT22;15971;50.772;6.100;2022-08-11T05:57:19;19.60;91.00
28839;DHT22;15971;50.772;6.100;2022-08-11T05:59:46;19.80;90.90
28839;DHT22;15971;50.772;6.100;2022-08-11T06:02:13;19.90;90.70
28839;DHT22;15971;50.772;6.100;2022-08-11T06:04:40;20.00;90.40
28839;DHT22;15971;50.772;6.100;2022-08-11T06:07:07;20.10;90.10
28839;DHT22;15971;50.772;6.100;2022-08-11T06:09:56;20.20;90.00
28839;DHT22;15971;50.772;6.100;2022-08-11T06:12:21;20.30;89.50
28839;DHT22;15971;50.772;6.100;2022-08-11T06:14:51;20.40;88.60
28839;DHT22;15971;50.772;6.100;2022-08-11T06:17:30;20.50;88.30
28839;DHT22;15971;50.772;6.100;2022-08-11T06:20:03;20.60;88.00
28839;DHT22;15971;50.772;6.100;2022-08-11T06:22:31;20.70;87.80
28839;DHT22;15971;50.772;6.100;2022-08-11T06:24:59;20.90;87.90
28839;DHT22;15971;50.772;6.100;2022-08-11T06:27:28;20.90;87.60
28839;DHT22;15971;50.772;6.100;2022-08-11T06:29:55;21.00;87.00
28839;DHT22;15971;50.772;6.100;2022-08-11T06:32:27;21.10;86.80
28839;DHT22;15971;50.772;6.100;2022-08-11T06:35:00;21.20;86.80
28839;DHT22;15971;50.772;6.100;2022-08-11T06:38:01;21.20;86.80
28839;DHT22;15971;50.772;6.100;2022-08-11T06:43:46;21.30;86.00
28839;DHT22;15971;50.772;6.100;2022-08-11T06:46:14;21.20;86.00
28839;DHT22;15971;50.772;6.100;2022-08-11T06:48:43;21.40;86.00
28839;DHT22;15971;50.772;6.100;2022-08-11T06:51:09;21.60;86.20
28839;DHT22;15971;50.772;6.100;2022-08-11T06:53:51;21.70;84.90
28839;DHT22;15971;50.772;6.100;2022-08-11T06:56:29;21.80;84.60
28839;DHT22;15971;50.772;6.100;2022-08-11T06:59:14;21.90;84.80
28839;DHT22;15971;50.772;6.100;2022-08-11T07:02:13;22.00;83.90
28839;DHT22;15971;50.772;6.100;2022-08-11T07:13:35;22.50;82.30
28839;DHT22;15971;50.772;6.100;2022-08-11T07:16:28;22.60;80.70
28839;DHT22;15971;50.772;6.100;2022-08-11T07:19:07;22.70;80.50
28839;DHT22;15971;50.772;6.100;2022-08-11T07:21:54;22.70;80.10
28839;DHT22;15971;50.772;6.100;2022-08-11T07:25:07;22.80;80.30
28839;DHT22;15971;50.772;6.100;2022-08-11T07:28:00;23.10;80.30
28839;DHT22;15971;50.772;6.100;2022-08-11T07:30:46;23.30;79.40
28839;DHT22;15971;50.772;6.100;2022-08-11T07:33:13;23.40;78.80
28839;DHT22;15971;50.772;6.100;2022-08-11T07:35:52;23.40;79.10
28839;DHT22;15971;50.772;6.100;2022-08-11T07:38:23;23.60;78.40
28839;DHT22;15971;50.772;6.100;2022-08-11T07:41:16;23.70;78.00
28839;DHT22;15971;50.772;6.100;2022-08-11T07:43:44;23.80;78.00
28839;DHT22;15971;50.772;6.100;2022-08-11T07:46:14;23.90;77.60
28839;DHT22;15971;50.772;6.100;2022-08-11T07:48:59;23.90;77.20
28839;DHT22;15971;50.772;6.100;2022-08-11T07:51:45;23.90;76.20
28839;DHT22;15971;50.772;6.100;2022-08-11T07:54:29;24.10;75.90
28839;DHT22;15971;50.772;6.100;2022-08-11T07:56:55;24.20;76.80
28839;DHT22;15971;50.772;6.100;2022-08-11T07:59:22;24.30;75.80
28839;DHT22;15971;50.772;6.100;2022-08-11T08:02:08;24.40;76.10
28839;DHT22;15971;50.772;6.100;2022-08-11T08:04:54;24.50;75.50
28839;DHT22;15971;50.772;6.100;2022-08-11T08:07:38;24.60;75.10
28839;DHT22;15971;50.772;6.100;2022-08-11T08:10:23;24.80;74.30
28839;DHT22;15971;50.772;6.100;2022-08-11T08:13:08;24.90;74.30
28839;DHT22;15971;50.772;6.100;2022-08-11T08:15:52;25.00;73.80
28839;DHT22;15971;50.772;6.100;2022-08-11T08:18:38;25.20;73.70
28839;DHT22;15971;50.772;6.100;2022-08-11T08:21:05;25.40;73.50
28839;DHT22;15971;50.772;6.100;2022-08-11T08:23:46;25.60;73.40
28839;DHT22;15971;50.772;6.100;2022-08-11T08:26:14;25.60;71.30
28839;DHT22;15971;50.772;6.100;2022-08-11T08:29:06;25.80;71.40
28839;DHT22;15971;50.772;6.100;2022-08-11T08:31:50;25.80;70.30
28839;DHT22;15971;50.772;6.100;2022-08-11T08:34:18;25.90;67.40
28839;DHT22;15971;50.772;6.100;2022-08-11T08:36:47;26.00;65.10
28839;DHT22;15971;50.772;6.100;2022-08-11T08:39:13;26.20;65.70
28839;DHT22;15971;50.772;6.100;2022-08-11T08:41:41;26.40;63.50
28839;DHT22;15971;50.772;6.100;2022-08-11T08:44:10;26.50;60.60
28839;DHT22;15971;50.772;6.100;2022-08-11T08:46:42;26.60;59.10
28839;DHT22;15971;50.772;6.100;2022-08-11T08:49:12;26.70;58.90
28839;DHT22;15971;50.772;6.100;2022-08-11T08:51:39;26.80;60.20
28839;DHT22;15971;50.772;6.100;2022-08-11T08:54:18;26.90;60.00
28839;DHT22;15971;50.772;6.100;2022-08-11T08:56:45;27.00;60.10
28839;DHT22;15971;50.772;6.100;2022-08-11T08:59:13;27.00;60.00
28839;DHT22;15971;50.772;6.100;2022-08-11T09:02:07;27.00;59.70
28839;DHT22;15971;50.772;6.100;2022-08-11T09:04:33;27.10;60.20
28839;DHT22;15971;50.772;6.100;2022-08-11T09:07:06;27.10;59.40
28839;DHT22;15971;50.772;6.100;2022-08-11T09:09:33;27.20;58.00
28839;DHT22;15971;50.772;6.100;2022-08-11T09:11:59;27.20;57.10
28839;DHT22;15971;50.772;6.100;2022-08-11T09:14:33;27.40;56.40
28839;DHT22;15971;50.772;6.100;2022-08-11T09:17:18;27.40;56.30
28839;DHT22;15971;50.772;6.100;2022-08-11T09:19:45;27.40;57.10
28839;DHT22;15971;50.772;6.100;2022-08-11T09:22:12;27.60;57.30
28839;DHT22;15971;50.772;6.100;2022-08-11T09:24:56;27.60;56.20
28839;DHT22;15971;50.772;6.100;2022-08-11T09:27:41;27.70;55.90
28839;DHT22;15971;50.772;6.100;2022-08-11T09:30:08;27.80;57.00
28839;DHT22;15971;50.772;6.100;2022-08-11T09:32:37;27.80;55.00
28839;DHT22;15971;50.772;6.100;2022-08-11T09:35:04;27.80;55.60
28839;DHT22;15971;50.772;6.100;2022-08-11T09:37:30;27.90;55.40
28839;DHT22;15971;50.772;6.100;2022-08-11T09:40:16;27.90;55.00
28839;DHT22;15971;50.772;6.100;2022-08-11T09:42:58;28.00;56.00
28839;DHT22;15971;50.772;6.100;2022-08-11T09:45:50;27.90;56.10
28839;DHT22;15971;50.772;6.100;2022-08-11T09:48:22;27.90;54.50
28839;DHT22;15971;50.772;6.100;2022-08-11T09:50:51;27.90;54.30
28839;DHT22;15971;50.772;6.100;2022-08-11T09:53:18;27.70;54.70
28839;DHT22;15971;50.772;6.100;2022-08-11T09:55:45;27.90;55.00
28839;DHT22;15971;50.772;6.100;2022-08-11T09:58:15;28.00;54.60
28839;DHT22;15971;50.772;6.100;2022-08-11T10:00:43;28.10;54.70
28839;DHT22;15971;50.772;6.100;2022-08-11T10:03:25;28.30;54.60
28839;DHT22;15971;50.772;6.100;2022-08-11T10:05:55;28.30;54.60
28839;DHT22;15971;50.772;6.100;2022-08-11T10:08:42;28.40;54.80
28839;DHT22;15971;50.772;6.100;2022-08-11T10:11:13;28.40;56.30
28839;DHT22;15971;50.772;6.100;2022-08-11T10:13:42;28.40;55.50
28839;DHT22;15971;50.772;6.100;2022-08-11T10:16:28;28.40;54.30
28839;DHT22;15971;50.772;6.100;2022-08-11T10:18:55;28.40;53.80
28839;DHT22;15971;50.772;6.100;2022-08-11T10:23:56;28.30;54.10
28839;DHT22;15971;50.772;6.100;2022-08-11T10:26:42;28.30;54.70
28839;DHT22;15971;50.772;6.100;2022-08-11T10:29:33;28.30;54.30
28839;DHT22;15971;50.772;6.100;2022-08-11T10:32:23;28.40;54.00
28839;DHT22;15971;50.772;6.100;2022-08-11T10:35:07;28.30;54.10
28839;DHT22;15971;50.772;6.100;2022-08-11T10:37:38;28.30;54.30
28839;DHT22;15971;50.772;6.100;2022-08-11T10:40:06;28.30;54.30
28839;DHT22;15971;50.772;6.100;2022-08-11T10:42:33;28.30;54.70
28839;DHT22;15971;50.772;6.100;2022-08-11T10:45:18;28.30;55.50
28839;DHT22;15971;50.772;6.100;2022-08-11T10:48:04;28.30;54.60
28839;DHT22;15971;50.772;6.100;2022-08-11T10:50:31;28.40;54.80
28839;DHT22;15971;50.772;6.100;2022-08-11T10:53:17;28.30;55.00
28839;DHT22;15971;50.772;6.100;2022-08-11T10:56:03;28.30;54.10
28839;DHT22;15971;50.772;6.100;2022-08-11T10:58:48;28.50;54.30
28839;DHT22;15971;50.772;6.100;2022-08-11T11:01:22;28.50;54.00
28839;DHT22;15971;50.772;6.100;2022-08-11T11:03:54;28.60;54.00
28839;DHT22;15971;50.772;6.100;2022-08-11T11:12:12;28.60;54.30
28839;DHT22;15971;50.772;6.100;2022-08-11T11:14:58;28.40;54.50
28839;DHT22;15971;50.772;6.100;2022-08-11T11:17:53;28.40;55.40
28839;DHT22;15971;50.772;6.100;2022-08-11T11:20:24;28.50;54.20
28839;DHT22;15971;50.772;6.100;2022-08-11T11:22:56;28.50;54.90
28839;DHT22;15971;50.772;6.100;2022-08-11T11:25:44;28.50;54.50
28839;DHT22;15971;50.772;6.100;2022-08-11T11:37:17;28.70;52.60
28839;DHT22;15971;50.772;6.100;2022-08-11T11:39:44;28.70;52.60
28839;DHT22;15971;50.772;6.100;2022-08-11T11:42:10;28.70;52.20
28839;DHT22;15971;50.772;6.100;2022-08-11T11:44:37;28.70;52.90
28839;DHT22;15971;50.772;6.100;2022-08-11T11:47:04;28.70;54.30
28839;DHT22;15971;50.772;6.100;2022-08-11T11:49:31;28.80;52.30
28839;DHT22;15971;50.772;6.100;2022-08-11T11:51:58;28.90;52.40
28839;DHT22;15971;50.772;6.100;2022-08-11T11:54:27;28.90;52.80
28839;DHT22;15971;50.772;6.100;2022-08-11T11:56:54;28.80;53.10
28839;DHT22;15971;50.772;6.100;2022-08-11T11:59:21;28.90;50.80
28839;DHT22;15971;50.772;6.100;2022-08-11T12:02:12;28.90;51.90
28839;DHT22;15971;50.772;6.100;2022-08-11T12:04:40;29.00;51.10
28839;DHT22;15971;50.772;6.100;2022-08-11T12:07:08;29.00;51.90
28839;DHT22;15971;50.772;6.100;2022-08-11T12:10:09;29.10;51.90
28839;DHT22;15971;50.772;6.100;2022-08-11T12:12:35;29.10;51.40
28839;DHT22;15971;50.772;6.100;2022-08-11T12:15:19;29.10;51.50
28839;DHT22;15971;50.772;6.100;2022-08-11T12:17:46;29.00;51.80
28839;DHT22;15971;50.772;6.100;2022-08-11T12:20:12;29.10;50.60
28839;DHT22;15971;50.772;6.100;2022-08-11T12:22:41;29.20;50.60
28839;DHT22;15971;50.772;6.100;2022-08-11T12:25:25;29.20;51.10
28839;DHT22;15971;50.772;6.100;2022-08-11T12:28:09;29.10;52.10
28839;DHT22;15971;50.772;6.100;2022-08-11T12:30:36;29.00;51.70
28839;DHT22;15971;50.772;6.100;2022-08-11T12:33:06;28.90;51.70
28839;DHT22;15971;50.772;6.100;2022-08-11T12:35:33;29.10;51.80
28839;DHT22;15971;50.772;6.100;2022-08-11T12:38:01;29.10;52.10
28839;DHT22;15971;50.772;6.100;2022-08-11T12:40:27;29.10;52.00
28839;DHT22;15971;50.772;6.100;2022-08-11T12:43:26;29.10;51.30
28839;DHT22;15971;50.772;6.100;2022-08-11T12:46:18;29.20;51.70
28839;DHT22;15971;50.772;6.100;2022-08-11T12:48:46;29.10;51.80
28839;DHT22;15971;50.772;6.100;2022-08-11T12:51:37;29.10;52.70
28839;DHT22;15971;50.772;6.100;2022-08-11T12:54:28;29.00;52.40
28839;DHT22;15971;50.772;6.100;2022-08-11T12:57:02;29.20;52.20
28839;DHT22;15971;50.772;6.100;2022-08-11T12:59:47;29.30;51.30
28839;DHT22;15971;50.772;6.100;2022-08-11T13:02:33;29.40;50.90
28839;DHT22;15971;50.772;6.100;2022-08-11T13:05:19;29.50;50.80
28839;DHT22;15971;50.772;6.100;2022-08-11T13:07:46;29.40;51.70
28839;DHT22;15971;50.772;6.100;2022-08-11T13:10:15;29.30;52.20
28839;DHT22;15971;50.772;6.100;2022-08-11T13:13:06;29.30;52.30
28839;DHT22;15971;50.772;6.100;2022-08-11T13:15:32;29.20;51.90
28839;DHT22;15971;50.772;6.100;2022-08-11T13:18:01;29.40;51.70
28839;DHT22;15971;50.772;6.100;2022-08-11T13:20:28;29.50;51.90
28839;DHT22;15971;50.772;6.100;2022-08-11T13:22:55;29.40;52.90
28839;DHT22;15971;50.772;6.100;2022-08-11T13:25:24;29.30;52.70
28839;DHT22;15971;50.772;6.100;2022-08-11T13:27:52;29.20;53.60
28839;DHT22;15971;50.772;6.100;2022-08-11T13:30:18;29.10;53.10
28839;DHT22;15971;50.772;6.100;2022-08-11T13:33:05;28.90;54.30
28839;DHT22;15971;50.772;6.100;2022-08-11T13:35:32;28.80;54.80
28839;DHT22;15971;50.772;6.100;2022-08-11T13:38:01;28.60;54.90
28839;DHT22;15971;50.772;6.100;2022-08-11T13:40:28;28.70;53.80
28839;DHT22;15971;50.772;6.100;2022-08-11T13:42:55;28.90;53.50
28839;DHT22;15971;50.772;6.100;2022-08-11T13:45:23;29.20;53.30
28839;DHT22;15971;50.772;6.100;2022-08-11T13:47:52;29.40;53.00
28839;DHT22;15971;50.772;6.100;2022-08-11T13:50:19;29.40;52.90
28839;DHT22;15971;50.772;6.100;2022-08-11T13:52:45;29.40;52.90
28839;DHT22;15971;50.772;6.100;2022-08-11T13:55:13;29.40;52.70
28839;DHT22;15971;50.772;6.100;2022-08-11T13:57:49;29.50;52.60
28839;DHT22;15971;50.772;6.100;2022-08-11T14:00:16;29.50;52.80
28839;DHT22;15971;50.772;6.100;2022-08-11T14:02:43;29.60;52.40
28839;DHT22;15971;50.772;6.100;2022-08-11T14:05:15;29.70;52.70
28839;DHT22;15971;50.772;6.100;2022-08-11T14:07:50;29.60;52.70
28839;DHT22;15971;50.772;6.100;2022-08-11T14:10:20;29.40;52.40
28839;DHT22;15971;50.772;6.100;2022-08-11T14:12:54;29.40;52.10
28839;DHT22;15971;50.772;6.100;2022-08-11T14:15:41;29.60;51.80
28839;DHT22;15971;50.772;6.100;2022-08-11T14:20:42;29.60;51.90
28839;DHT22;15971;50.772;6.100;2022-08-11T14:23:30;29.50;52.10
28839;DHT22;15971;50.772;6.100;2022-08-11T14:25:57;29.60;51.70
28839;DHT22;15971;50.772;6.100;2022-08-11T14:28:42;29.60;51.60
28839;DHT22;15971;50.772;6.100;2022-08-11T14:31:08;29.60;51.30
28839;DHT22;15971;50.772;6.100;2022-08-11T14:33:35;29.50;51.40
28839;DHT22;15971;50.772;6.100;2022-08-11T14:36:04;29.60;51.70
28839;DHT22;15971;50.772;6.100;2022-08-11T14:38:34;29.60;51.00
28839;DHT22;15971;50.772;6.100;2022-08-11T14:41:01;29.70;51.10
28839;DHT22;15971;50.772;6.100;2022-08-11T14:43:46;29.70;51.70
28839;DHT22;15971;50.772;6.100;2022-08-11T14:46:36;29.60;51.50
28839;DHT22;15971;50.772;6.100;2022-08-11T14:49:21;29.50;51.50
28839;DHT22;15971;50.772;6.100;2022-08-11T14:51:47;29.50;50.90
28839;DHT22;15971;50.772;6.100;2022-08-11T14:54:15;29.40;51.10
28839;DHT22;15971;50.772;6.100;2022-08-11T14:57:00;29.50;51.30
28839;DHT22;15971;50.772;6.100;2022-08-11T14:59:28;29.60;51.20
28839;DHT22;15971;50.772;6.100;2022-08-11T15:01:54;29.50;51.30
28839;DHT22;15971;50.772;6.100;2022-08-11T15:04:38;29.30;52.10
28839;DHT22;15971;50.772;6.100;2022-08-11T15:07:04;29.20;52.80
28839;DHT22;15971;50.772;6.100;2022-08-11T15:09:30;29.20;51.80
28839;DHT22;15971;50.772;6.100;2022-08-11T15:11:57;29.30;51.90
28839;DHT22;15971;50.772;6.100;2022-08-11T15:14:33;29.40;51.80
28839;DHT22;15971;50.772;6.100;2022-08-11T15:17:18;29.20;53.50
28839;DHT22;15971;50.772;6.100;2022-08-11T15:19:45;29.10;52.50
28839;DHT22;15971;50.772;6.100;2022-08-11T15:22:29;29.10;52.50
28839;DHT22;15971;50.772;6.100;2022-08-11T15:25:14;29.10;52.80
28839;DHT22;15971;50.772;6.100;2022-08-11T15:27:40;29.00;53.40
28839;DHT22;15971;50.772;6.100;2022-08-11T15:30:25;28.80;53.80
28839;DHT22;15971;50.772;6.100;2022-08-11T15:33:11;28.90;53.20
28839;DHT22;15971;50.772;6.100;2022-08-11T15:36:00;28.80;53.60
28839;DHT22;15971;50.772;6.100;2022-08-11T15:39:35;28.80;53.20
28839;DHT22;15971;50.772;6.100;2022-08-11T15:41:49;28.90;53.40
28839;DHT22;15971;50.772;6.100;2022-08-11T15:44:36;29.00;53.40
28839;DHT22;15971;50.772;6.100;2022-08-11T15:47:36;29.00;54.30
28839;DHT22;15971;50.772;6.100;2022-08-11T15:50:03;29.00;52.80
28839;DHT22;15971;50.772;6.100;2022-08-11T15:52:33;29.00;53.10
28839;DHT22;15971;50.772;6.100;2022-08-11T15:55:05;29.10;52.30
28839;DHT22;15971;50.772;6.100;2022-08-11T15:57:32;29.00;52.60
28839;DHT22;15971;50.772;6.100;2022-08-11T16:00:18;29.00;52.50
28839;DHT22;15971;50.772;6.100;2022-08-11T16:03:02;28.90;53.20
28839;DHT22;15971;50.772;6.100;2022-08-11T16:05:48;28.90;53.50
28839;DHT22;15971;50.772;6.100;2022-08-11T16:08:17;28.70;54.20
28839;DHT22;15971;50.772;6.100;2022-08-11T16:10:45;28.60;53.70
28839;DHT22;15971;50.772;6.100;2022-08-11T16:13:12;28.60;54.10
28839;DHT22;15971;50.772;6.100;2022-08-11T16:15:49;28.50;54.60
28839;DHT22;15971;50.772;6.100;2022-08-11T16:18:53;28.40;54.30
28839;DHT22;15971;50.772;6.100;2022-08-11T16:21:27;28.60;52.90
28839;DHT22;15971;50.772;6.100;2022-08-11T16:23:56;28.80;52.00
28839;DHT22;15971;50.772;6.100;2022-08-11T16:26:24;29.10;50.90
28839;DHT22;15971;50.772;6.100;2022-08-11T16:28:55;29.10;51.30
28839;DHT22;15971;50.772;6.100;2022-08-11T16:31:23;29.00;51.60
28839;DHT22;15971;50.772;6.100;2022-08-11T16:33:51;29.10;51.30
28839;DHT22;15971;50.772;6.100;2022-08-11T16:36:18;29.00;52.60
28839;DHT22;15971;50.772;6.100;2022-08-11T16:39:04;28.90;53.60
28839;DHT22;15971;50.772;6.100;2022-08-11T16:41:33;28.80;53.90
28839;DHT22;15971;50.772;6.100;2022-08-11T16:44:19;28.70;52.90
28839;DHT22;15971;50.772;6.100;2022-08-11T16:47:14;28.90;51.40
28839;DHT22;15971;50.772;6.100;2022-08-11T16:49:49;29.00;51.30
28839;DHT22;15971;50.772;6.100;2022-08-11T16:52:16;29.00;51.00
28839;DHT22;15971;50.772;6.100;2022-08-11T16:54:43;28.90;51.30
28839;DHT22;15971;50.772;6.100;2022-08-11T16:57:23;28.80;52.00
28839;DHT22;15971;50.772;6.100;2022-08-11T17:00:09;28.70;53.10
28839;DHT22;15971;50.772;6.100;2022-08-11T17:02:45;28.50;53.10
28839;DHT22;15971;50.772;6.100;2022-08-11T17:05:32;28.40;53.80
28839;DHT22;15971;50.772;6.100;2022-08-11T17:09:01;28.30;53.80
28839;DHT22;15971;50.772;6.100;2022-08-11T17:11:28;28.20;54.10
28839;DHT22;15971;50.772;6.100;2022-08-11T17:14:23;28.10;54.50
28839;DHT22;15971;50.772;6.100;2022-08-11T17:16:51;28.00;54.30
28839;DHT22;15971;50.772;6.100;2022-08-11T17:19:25;27.90;54.50
28839;DHT22;15971;50.772;6.100;2022-08-11T17:21:53;27.80;54.20
28839;DHT22;15971;50.772;6.100;2022-08-11T17:24:42;27.80;55.00
28839;DHT22;15971;50.772;6.100;2022-08-11T17:27:08;27.70;54.10
28839;DHT22;15971;50.772;6.100;2022-08-11T17:29:52;27.90;53.80
28839;DHT22;15971;50.772;6.100;2022-08-11T17:32:23;27.90;54.10
28839;DHT22;15971;50.772;6.100;2022-08-11T17:35:15;28.10;53.60
28839;DHT22;15971;50.772;6.100;2022-08-11T17:38:18;28.40;52.50
28839;DHT22;15971;50.772;6.100;2022-08-11T17:40:48;28.40;53.10
28839;DHT22;15971;50.772;6.100;2022-08-11T17:43:34;28.30;53.80
28839;DHT22;15971;50.772;6.100;2022-08-11T17:46:19;28.20;54.20
28839;DHT22;15971;50.772;6.100;2022-08-11T17:49:06;28.00;54.60
28839;DHT22;15971;50.772;6.100;2022-08-11T17:51:33;27.70;53.80
28839;DHT22;15971;50.772;6.100;2022-08-11T17:54:18;27.90;53.60
28839;DHT22;15971;50.772;6.100;2022-08-11T17:57:03;28.00;54.10
28839;DHT22;15971;50.772;6.100;2022-08-11T17:59:50;28.10;53.30
28839;DHT22;15971;50.772;6.100;2022-08-11T18:02:38;28.20;53.40
28839;DHT22;15971;50.772;6.100;2022-08-11T18:05:24;28.20;54.10
28839;DHT22;15971;50.772;6.100;2022-08-11T18:07:55;28.00;55.00
28839;DHT22;15971;50.772;6.100;2022-08-11T18:10:40;27.90;54.00
28839;DHT22;15971;50.772;6.100;2022-08-11T18:13:28;28.00;54.40
28839;DHT22;15971;50.772;6.100;2022-08-11T18:16:13;27.80;55.40
28839;DHT22;15971;50.772;6.100;2022-08-11T18:18:58;27.70;54.70
28839;DHT22;15971;50.772;6.100;2022-08-11T18:21:44;27.60;56.00
28839;DHT22;15971;50.772;6.100;2022-08-11T18:24:31;27.80;54.70
28839;DHT22;15971;50.772;6.100;2022-08-11T18:27:19;27.60;56.00
28839;DHT22;15971;50.772;6.100;2022-08-11T18:30:05;27.60;55.30
28839;DHT22;15971;50.772;6.100;2022-08-11T18:32:53;27.60;55.10
28839;DHT22;15971;50.772;6.100;2022-08-11T18:35:38;27.50;55.20
28839;DHT22;15971;50.772;6.100;2022-08-11T18:38:26;27.30;55.70
28839;DHT22;15971;50.772;6.100;2022-08-11T18:41:11;27.30;56.10
28839;DHT22;15971;50.772;6.100;2022-08-11T18:43:58;27.10;57.10
28839;DHT22;15971;50.772;6.100;2022-08-11T18:46:46;26.90;57.10
28839;DHT22;15971;50.772;6.100;2022-08-11T18:49:35;26.90;56.70
28839;DHT22;15971;50.772;6.100;2022-08-11T18:52:21;26.90;57.40
28839;DHT22;15971;50.772;6.100;2022-08-11T18:55:10;26.90;57.10
28839;DHT22;15971;50.772;6.100;2022-08-11T18:57:55;26.90;57.30
28839;DHT22;15971;50.772;6.100;2022-08-11T19:00:41;26.90;57.20
28839;DHT22;15971;50.772;6.100;2022-08-11T19:03:29;27.00;57.00
28839;DHT22;15971;50.772;6.100;2022-08-11T19:06:15;26.90;57.10
28839;DHT22;15971;50.772;6.100;2022-08-11T19:09:03;26.80;57.90
28839;DHT22;15971;50.772;6.100;2022-08-11T19:11:49;26.70;57.70
28839;DHT22;15971;50.772;6.100;2022-08-11T19:14:36;26.60;57.90
28839;DHT22;15971;50.772;6.100;2022-08-11T19:17:23;26.60;58.10
28839;DHT22;15971;50.772;6.100;2022-08-11T19:20:12;26.60;58.20
28839;DHT22;15971;50.772;6.100;2022-08-11T19:22:57;26.60;58.40
28839;DHT22;15971;50.772;6.100;2022-08-11T19:25:42;26.60;58.80
28839;DHT22;15971;50.772;6.100;2022-08-11T19:28:28;26.40;59.50
28839;DHT22;15971;50.772;6.100;2022-08-11T19:31:13;26.40;59.50
28839;DHT22;15971;50.772;6.100;2022-08-11T19:33:58;26.30;59.50
28839;DHT22;15971;50.772;6.100;2022-08-11T19:36:43;26.30;59.50
28839;DHT22;15971;50.772;6.100;2022-08-11T19:39:29;26.30;59.80
28839;DHT22;15971;50.772;6.100;2022-08-11T19:42:14;26.20;60.40
28839;DHT22;15971;50.772;6.100;2022-08-11T19:45:00;26.20;60.30
28839;DHT22;15971;50.772;6.100;2022-08-11T19:47:46;26.10;60.70
28839;DHT22;15971;50.772;6.100;2022-08-11T19:50:31;26.00;61.40
28839;DHT22;15971;50.772;6.100;2022-08-11T19:53:17;25.90;61.40
28839;DHT22;15971;50.772;6.100;2022-08-11T19:56:02;25.90;61.80
28839;DHT22;15971;50.772;6.100;2022-08-11T19:58:47;25.80;61.70
28839;DHT22;15971;50.772;6.100;2022-08-11T20:01:33;25.80;61.90
28839;DHT22;15971;50.772;6.100;2022-08-11T20:04:18;25.70;62.30
28839;DHT22;15971;50.772;6.100;2022-08-11T20:07:02;25.70;62.60
28839;DHT22;15971;50.772;6.100;2022-08-11T20:09:47;25.60;62.70
28839;DHT22;15971;50.772;6.100;2022-08-11T20:12:35;25.60;63.40
28839;DHT22;15971;50.772;6.100;2022-08-11T20:15:20;25.50;64.50